sensor_id;sensor_type;location;lat;lon;timestamp;P1;durP1;ratioP1;P2;durP2;ratioP2
74650;SDS011;63169;46.042;14.592;2024-02-23T00:00:00;0.73;;;0.43;;
74650;SDS011;63169;46.042;14.592;2024-02-23T00:02:25;1.67;;;0.22;;
74650;SDS011;63169;46.042;14.592;2024-02-23T00:04:51;1.77;;;1.35;;
74650;SDS011;63169;46.042;14.592;2024-02-23T00:07:16;2.10;;;0.30;;
74650;SDS011;63169;46.042;14.592;2024-02-23T00:09:42;2.10;;;0.20;;
74650;SDS011;63169;46.042;14.592;2024-02-23T00:12:07;0.93;;;0.13;;
74650;SDS011;63169;46.042;14.592;2024-02-23T00:14:33;2.13;;;1.92;;
74650;SDS011;63169;46.042;14.592;2024-02-23T00:17:01;1.35;;;0.50;;
74650;SDS011;63169;46.042;14.592;2024-02-23T00:19:27;1.95;;;0.10;;
74650;SDS011;63169;46.042;14.592;2024-02-23T00:21:54;1.52;;;1.42;;
74650;SDS011;63169;46.042;14.592;2024-02-23T00:24:20;1.95;;;0.80;;
74650;SDS011;63169;46.042;14.592;2024-02-23T00:26:46;1.38;;;0.30;;
74650;SDS011;63169;46.042;14.592;2024-02-23T00:29:11;1.75;;;0.20;;
74650;SDS011;63169;46.042;14.592;2024-02-23T00:31:37;1.77;;;0.10;;
74650;SDS011;63169;46.042;14.592;2024-02-23T00:34:05;1.13;;;0.28;;
74650;SDS011;63169;46.042;14.592;2024-02-23T00:36:35;1.35;;;0.35;;
74650;SDS011;63169;46.042;14.592;2024-02-23T00:39:02;1.17;;;0.10;;
74650;SDS011;63169;46.042;14.592;2024-02-23T00:41:27;1.30;;;0.43;;
74650;SDS011;63169;46.042;14.592;2024-02-23T00:43:53;0.85;;;0.35;;
74650;SDS011;63169;46.042;14.592;2024-02-23T00:46:18;3.05;;;0.80;;
74650;SDS011;63169;46.042;14.592;2024-02-23T00:48:44;0.73;;;0.20;;
74650;SDS011;63169;46.042;14.592;2024-02-23T00:51:09;0.95;;;0.10;;
74650;SDS011;63169;46.042;14.592;2024-02-23T00:53:35;1.75;;;0.32;;
74650;SDS011;63169;46.042;14.592;2024-02-23T00:56:00;2.40;;;0.52;;
74650;SDS011;63169;46.042;14.592;2024-02-23T00:58:26;1.20;;;0.20;;
74650;SDS011;63169;46.042;14.592;2024-02-23T01:00:51;1.10;;;0.22;;
74650;SDS011;63169;46.042;14.592;2024-02-23T01:03:16;1.42;;;0.73;;
74650;SDS011;63169;46.042;14.592;2024-02-23T01:05:42;1.67;;;1.27;;
74650;SDS011;63169;46.042;14.592;2024-02-23T01:08:07;0.70;;;0.10;;
74650;SDS011;63169;46.042;14.592;2024-02-23T01:10:33;2.10;;;1.92;;
74650;SDS011;63169;46.042;14.592;2024-02-23T01:12:58;1.30;;;0.30;;
74650;SDS011;63169;46.042;14.592;2024-02-23T01:15:24;1.35;;;0.68;;
74650;SDS011;63169;46.042;14.592;2024-02-23T01:17:49;1.85;;;0.82;;
74650;SDS011;63169;46.042;14.592;2024-02-23T01:20:14;0.93;;;0.13;;
74650;SDS011;63169;46.042;14.592;2024-02-23T01:22:40;1.90;;;1.38;;
74650;SDS011;63169;46.042;14.592;2024-02-23T01:25:05;1.00;;;0.10;;
74650;SDS011;63169;46.042;14.592;2024-02-23T01:27:31;3.30;;;1.17;;
74650;SDS011;63169;46.042;14.592;2024-02-23T01:29:56;0.95;;;0.20;;
74650;SDS011;63169;46.042;14.592;2024-02-23T01:32:22;0.93;;;0.32;;
74650;SDS011;63169;46.042;14.592;2024-02-23T01:34:48;0.88;;;0.25;;
74650;SDS011;63169;46.042;14.592;2024-02-23T01:37:13;1.20;;;0.20;;
74650;SDS011;63169;46.042;14.592;2024-02-23T01:39:39;1.92;;;0.40;;
74650;SDS011;63169;46.042;14.592;2024-02-23T01:42:04;1.13;;;0.28;;
74650;SDS011;63169;46.042;14.592;2024-02-23T01:44:29;1.55;;;0.30;;
74650;SDS011;63169;46.042;14.592;2024-02-23T01:46:55;1.70;;;0.20;;
74650;SDS011;63169;46.042;14.592;2024-02-23T01:49:20;1.17;;;0.52;;
74650;SDS011;63169;46.042;14.592;2024-02-23T01:51:47;1.50;;;0.70;;
74650;SDS011;63169;46.042;14.592;2024-02-23T01:56:39;1.13;;;0.20;;
74650;SDS011;63169;46.042;14.592;2024-02-23T01:59:05;1.20;;;0.17;;
74650;SDS011;63169;46.042;14.592;2024-02-23T02:01:31;1.63;;;0.50;;
74650;SDS011;63169;46.042;14.592;2024-02-23T02:03:57;2.35;;;1.25;;
74650;SDS011;63169;46.042;14.592;2024-02-23T02:06:23;1.08;;;0.17;;
74650;SDS011;63169;46.042;14.592;2024-02-23T02:08:49;1.27;;;0.20;;
74650;SDS011;63169;46.042;14.592;2024-02-23T02:11:15;1.15;;;0.65;;
74650;SDS011;63169;46.042;14.592;2024-02-23T02:13:40;0.75;;;0.40;;
74650;SDS011;63169;46.042;14.592;2024-02-23T02:16:06;1.38;;;0.30;;
74650;SDS011;63169;46.042;14.592;2024-02-23T02:18:31;0.73;;;0.65;;
74650;SDS011;63169;46.042;14.592;2024-02-23T02:20:57;1.13;;;0.40;;
74650;SDS011;63169;46.042;14.592;2024-02-23T02:23:23;1.25;;;0.20;;
74650;SDS011;63169;46.042;14.592;2024-02-23T02:25:54;1.38;;;0.20;;
74650;SDS011;63169;46.042;14.592;2024-02-23T02:28:21;2.20;;;0.60;;
74650;SDS011;63169;46.042;14.592;2024-02-23T02:30:48;1.00;;;0.40;;
74650;SDS011;63169;46.042;14.592;2024-02-23T02:33:13;1.27;;;0.30;;
74650;SDS011;63169;46.042;14.592;2024-02-23T02:35:39;1.17;;;0.55;;
74650;SDS011;63169;46.042;14.592;2024-02-23T02:38:04;1.17;;;0.20;;
74650;SDS011;63169;46.042;14.592;2024-02-23T02:40:30;0.95;;;0.82;;
74650;SDS011;63169;46.042;14.592;2024-02-23T02:45:22;1.15;;;0.85;;
74650;SDS011;63169;46.042;14.592;2024-02-23T02:47:47;1.88;;;0.45;;
74650;SDS011;63169;46.042;14.592;2024-02-23T02:50:13;1.80;;;0.88;;
74650;SDS011;63169;46.042;14.592;2024-02-23T02:52:38;0.90;;;0.30;;
74650;SDS011;63169;46.042;14.592;2024-02-23T02:55:04;1.38;;;0.40;;
74650;SDS011;63169;46.042;14.592;2024-02-23T02:57:29;1.77;;;0.47;;
74650;SDS011;63169;46.042;14.592;2024-02-23T02:59:55;1.60;;;0.35;;
74650;SDS011;63169;46.042;14.592;2024-02-23T03:02:20;2.72;;;2.60;;
74650;SDS011;63169;46.042;14.592;2024-02-23T03:04:46;1.35;;;0.30;;
74650;SDS011;63169;46.042;14.592;2024-02-23T03:08:06;1.02;;;0.90;;
74650;SDS011;63169;46.042;14.592;2024-02-23T03:10:32;1.42;;;1.33;;
74650;SDS011;63169;46.042;14.592;2024-02-23T03:12:57;1.30;;;0.80;;
74650;SDS011;63169;46.042;14.592;2024-02-23T03:15:23;1.60;;;1.05;;
74650;SDS011;63169;46.042;14.592;2024-02-23T03:17:48;1.40;;;0.28;;
74650;SDS011;63169;46.042;14.592;2024-02-23T03:20:15;1.45;;;0.70;;
74650;SDS011;63169;46.042;14.592;2024-02-23T03:22:41;1.40;;;0.80;;
74650;SDS011;63169;46.042;14.592;2024-02-23T03:25:06;1.45;;;0.63;;
74650;SDS011;63169;46.042;14.592;2024-02-23T03:27:36;1.23;;;0.30;;
74650;SDS011;63169;46.042;14.592;2024-02-23T03:30:02;2.08;;;0.32;;
74650;SDS011;63169;46.042;14.592;2024-02-23T03:32:28;2.05;;;1.25;;
74650;SDS011;63169;46.042;14.592;2024-02-23T03:34:56;0.80;;;0.30;;
74650;SDS011;63169;46.042;14.592;2024-02-23T03:37:21;1.25;;;0.30;;
74650;SDS011;63169;46.042;14.592;2024-02-23T03:39:47;2.13;;;0.82;;
74650;SDS011;63169;46.042;14.592;2024-02-23T03:42:13;1.48;;;0.95;;
74650;SDS011;63169;46.042;14.592;2024-02-23T03:44:38;1.15;;;0.75;;
74650;SDS011;63169;46.042;14.592;2024-02-23T03:47:06;1.25;;;0.30;;
74650;SDS011;63169;46.042;14.592;2024-02-23T03:49:32;1.88;;;0.88;;
74650;SDS011;63169;46.042;14.592;2024-02-23T03:51:57;1.35;;;0.80;;
74650;SDS011;63169;46.042;14.592;2024-02-23T03:54:23;1.10;;;0.77;;
74650;SDS011;63169;46.042;14.592;2024-02-23T03:56:48;1.25;;;0.60;;
74650;SDS011;63169;46.042;14.592;2024-02-23T03:59:14;3.45;;;0.30;;
74650;SDS011;63169;46.042;14.592;2024-02-23T04:01:39;1.77;;;1.25;;
74650;SDS011;63169;46.042;14.592;2024-02-23T04:04:04;1.27;;;0.35;;
74650;SDS011;63169;46.042;14.592;2024-02-23T04:06:30;1.48;;;0.22;;
74650;SDS011;63169;46.042;14.592;2024-02-23T04:08:56;2.08;;;0.57;;
74650;SDS011;63169;46.042;14.592;2024-02-23T04:11:21;0.93;;;0.30;;
74650;SDS011;63169;46.042;14.592;2024-02-23T04:13:47;2.53;;;0.82;;
74650;SDS011;63169;46.042;14.592;2024-02-23T04:16:12;1.33;;;0.77;;
74650;SDS011;63169;46.042;14.592;2024-02-23T04:18:38;2.10;;;0.98;;
74650;SDS011;63169;46.042;14.592;2024-02-23T04:21:03;1.67;;;1.08;;
74650;SDS011;63169;46.042;14.592;2024-02-23T04:23:29;1.42;;;0.82;;
74650;SDS011;63169;46.042;14.592;2024-02-23T04:25:55;3.92;;;1.83;;
74650;SDS011;63169;46.042;14.592;2024-02-23T04:28:20;9.30;;;3.28;;
74650;SDS011;63169;46.042;14.592;2024-02-23T04:30:45;2.85;;;0.93;;
74650;SDS011;63169;46.042;14.592;2024-02-23T04:33:11;4.32;;;3.95;;
74650;SDS011;63169;46.042;14.592;2024-02-23T04:35:36;2.63;;;0.75;;
74650;SDS011;63169;46.042;14.592;2024-02-23T04:38:02;1.55;;;1.08;;
74650;SDS011;63169;46.042;14.592;2024-02-23T04:40:27;2.25;;;1.05;;
74650;SDS011;63169;46.042;14.592;2024-02-23T04:42:53;2.22;;;0.82;;
74650;SDS011;63169;46.042;14.592;2024-02-23T04:45:18;4.40;;;1.88;;
74650;SDS011;63169;46.042;14.592;2024-02-23T04:47:44;8.95;;;3.42;;
74650;SDS011;63169;46.042;14.592;2024-02-23T04:50:11;12.07;;;5.75;;
74650;SDS011;63169;46.042;14.592;2024-02-23T04:52:37;10.50;;;4.07;;
74650;SDS011;63169;46.042;14.592;2024-02-23T04:55:02;10.55;;;3.50;;
74650;SDS011;63169;46.042;14.592;2024-02-23T04:57:28;9.93;;;3.25;;
74650;SDS011;63169;46.042;14.592;2024-02-23T04:59:53;6.78;;;2.72;;
74650;SDS011;63169;46.042;14.592;2024-02-23T05:02:19;5.78;;;1.88;;
74650;SDS011;63169;46.042;14.592;2024-02-23T05:04:44;3.38;;;1.63;;
74650;SDS011;63169;46.042;14.592;2024-02-23T05:07:10;3.03;;;0.93;;
74650;SDS011;63169;46.042;14.592;2024-02-23T05:09:35;3.08;;;2.78;;
74650;SDS011;63169;46.042;14.592;2024-02-23T05:12:01;3.75;;;1.15;;
74650;SDS011;63169;46.042;14.592;2024-02-23T05:14:29;5.90;;;1.80;;
74650;SDS011;63169;46.042;14.592;2024-02-23T05:16:55;3.92;;;2.15;;
74650;SDS011;63169;46.042;14.592;2024-02-23T05:19:20;3.85;;;1.30;;
74650;SDS011;63169;46.042;14.592;2024-02-23T05:21:45;2.88;;;1.27;;
74650;SDS011;63169;46.042;14.592;2024-02-23T05:24:11;2.53;;;1.05;;
74650;SDS011;63169;46.042;14.592;2024-02-23T05:26:36;4.53;;;1.08;;
74650;SDS011;63169;46.042;14.592;2024-02-23T05:29:02;2.25;;;0.95;;
74650;SDS011;63169;46.042;14.592;2024-02-23T05:31:43;1.90;;;1.33;;
74650;SDS011;63169;46.042;14.592;2024-02-23T05:34:09;4.70;;;1.08;;
74650;SDS011;63169;46.042;14.592;2024-02-23T05:36:35;3.53;;;1.92;;
74650;SDS011;63169;46.042;14.592;2024-02-23T05:39:00;4.22;;;1.27;;
74650;SDS011;63169;46.042;14.592;2024-02-23T05:41:26;3.58;;;1.27;;
74650;SDS011;63169;46.042;14.592;2024-02-23T05:43:51;3.85;;;1.27;;
74650;SDS011;63169;46.042;14.592;2024-02-23T05:46:16;7.05;;;2.08;;
74650;SDS011;63169;46.042;14.592;2024-02-23T05:48:43;4.53;;;2.28;;
74650;SDS011;63169;46.042;14.592;2024-02-23T05:51:08;2.63;;;1.17;;
74650;SDS011;63169;46.042;14.592;2024-02-23T05:53:34;1.77;;;0.82;;
74650;SDS011;63169;46.042;14.592;2024-02-23T05:55:59;2.05;;;1.15;;
74650;SDS011;63169;46.042;14.592;2024-02-23T05:58:25;1.75;;;0.98;;
74650;SDS011;63169;46.042;14.592;2024-02-23T06:00:50;2.60;;;1.33;;
74650;SDS011;63169;46.042;14.592;2024-02-23T06:03:16;2.58;;;0.50;;
74650;SDS011;63169;46.042;14.592;2024-02-23T06:05:43;3.78;;;1.77;;
74650;SDS011;63169;46.042;14.592;2024-02-23T06:08:08;2.88;;;1.98;;
74650;SDS011;63169;46.042;14.592;2024-02-23T06:10:34;2.03;;;1.25;;
74650;SDS011;63169;46.042;14.592;2024-02-23T06:12:59;1.90;;;0.55;;
74650;SDS011;63169;46.042;14.592;2024-02-23T06:15:25;1.83;;;0.63;;
74650;SDS011;63169;46.042;14.592;2024-02-23T06:17:50;3.35;;;0.73;;
74650;SDS011;63169;46.042;14.592;2024-02-23T06:20:16;4.88;;;1.13;;
74650;SDS011;63169;46.042;14.592;2024-02-23T06:22:42;3.92;;;0.73;;
74650;SDS011;63169;46.042;14.592;2024-02-23T06:25:07;3.60;;;1.42;;
74650;SDS011;63169;46.042;14.592;2024-02-23T06:27:33;4.10;;;1.20;;
74650;SDS011;63169;46.042;14.592;2024-02-23T06:29:58;4.03;;;1.40;;
74650;SDS011;63169;46.042;14.592;2024-02-23T06:32:24;5.32;;;2.85;;
74650;SDS011;63169;46.042;14.592;2024-02-23T06:34:49;2.20;;;0.77;;
74650;SDS011;63169;46.042;14.592;2024-02-23T06:37:15;2.15;;;1.00;;
74650;SDS011;63169;46.042;14.592;2024-02-23T06:39:40;2.83;;;1.00;;
74650;SDS011;63169;46.042;14.592;2024-02-23T06:42:06;3.85;;;1.55;;
74650;SDS011;63169;46.042;14.592;2024-02-23T06:44:31;3.35;;;1.13;;
74650;SDS011;63169;46.042;14.592;2024-02-23T06:46:57;3.70;;;1.48;;
74650;SDS011;63169;46.042;14.592;2024-02-23T06:49:22;4.43;;;2.92;;
74650;SDS011;63169;46.042;14.592;2024-02-23T06:51:48;4.35;;;2.15;;
74650;SDS011;63169;46.042;14.592;2024-02-23T06:54:13;3.72;;;2.20;;
74650;SDS011;63169;46.042;14.592;2024-02-23T06:56:39;4.18;;;1.90;;
74650;SDS011;63169;46.042;14.592;2024-02-23T06:59:04;5.90;;;3.65;;
74650;SDS011;63169;46.042;14.592;2024-02-23T07:01:30;5.60;;;3.05;;
74650;SDS011;63169;46.042;14.592;2024-02-23T07:03:56;8.05;;;4.55;;
74650;SDS011;63169;46.042;14.592;2024-02-23T07:06:21;15.35;;;7.57;;
74650;SDS011;63169;46.042;14.592;2024-02-23T07:08:47;15.70;;;7.78;;
74650;SDS011;63169;46.042;14.592;2024-02-23T07:11:12;18.35;;;9.35;;
74650;SDS011;63169;46.042;14.592;2024-02-23T07:13:38;11.35;;;4.78;;
74650;SDS011;63169;46.042;14.592;2024-02-23T07:16:03;8.73;;;5.53;;
74650;SDS011;63169;46.042;14.592;2024-02-23T07:18:29;13.75;;;7.32;;
74650;SDS011;63169;46.042;14.592;2024-02-23T07:20:54;7.20;;;4.20;;
74650;SDS011;63169;46.042;14.592;2024-02-23T07:23:20;9.63;;;4.25;;
74650;SDS011;63169;46.042;14.592;2024-02-23T07:25:47;3.90;;;1.65;;
74650;SDS011;63169;46.042;14.592;2024-02-23T07:28:15;4.00;;;2.10;;
74650;SDS011;63169;46.042;14.592;2024-02-23T07:30:43;3.78;;;0.95;;
74650;SDS011;63169;46.042;14.592;2024-02-23T07:33:08;3.10;;;1.80;;
74650;SDS011;63169;46.042;14.592;2024-02-23T07:35:34;3.22;;;1.33;;
74650;SDS011;63169;46.042;14.592;2024-02-23T07:37:59;4.75;;;1.58;;
74650;SDS011;63169;46.042;14.592;2024-02-23T07:40:25;2.95;;;1.60;;
74650;SDS011;63169;46.042;14.592;2024-02-23T07:42:50;12.38;;;6.15;;
74650;SDS011;63169;46.042;14.592;2024-02-23T07:45:15;8.43;;;3.55;;
74650;SDS011;63169;46.042;14.592;2024-02-23T07:47:41;15.23;;;8.52;;
74650;SDS011;63169;46.042;14.592;2024-02-23T07:50:06;4.90;;;1.02;;
74650;SDS011;63169;46.042;14.592;2024-02-23T07:52:33;4.22;;;2.33;;
74650;SDS011;63169;46.042;14.592;2024-02-23T07:54:58;3.47;;;1.77;;
74650;SDS011;63169;46.042;14.592;2024-02-23T07:57:25;4.43;;;2.22;;
74650;SDS011;63169;46.042;14.592;2024-02-23T07:59:50;4.15;;;2.33;;
74650;SDS011;63169;46.042;14.592;2024-02-23T08:02:16;4.00;;;1.60;;
74650;SDS011;63169;46.042;14.592;2024-02-23T08:04:41;4.40;;;1.98;;
74650;SDS011;63169;46.042;14.592;2024-02-23T08:07:07;6.30;;;2.33;;
74650;SDS011;63169;46.042;14.592;2024-02-23T08:09:33;11.23;;;4.97;;
74650;SDS011;63169;46.042;14.592;2024-02-23T08:11:58;4.80;;;1.75;;
74650;SDS011;63169;46.042;14.592;2024-02-23T08:14:24;4.50;;;1.63;;
74650;SDS011;63169;46.042;14.592;2024-02-23T08:16:49;3.40;;;1.50;;
74650;SDS011;63169;46.042;14.592;2024-02-23T08:19:15;3.25;;;1.65;;
74650;SDS011;63169;46.042;14.592;2024-02-23T08:21:40;4.13;;;1.85;;
74650;SDS011;63169;46.042;14.592;2024-02-23T08:24:06;4.40;;;1.95;;
74650;SDS011;63169;46.042;14.592;2024-02-23T08:26:32;4.00;;;1.85;;
74650;SDS011;63169;46.042;14.592;2024-02-23T08:28:58;4.30;;;2.40;;
74650;SDS011;63169;46.042;14.592;2024-02-23T08:31:24;4.78;;;1.80;;
74650;SDS011;63169;46.042;14.592;2024-02-23T08:33:49;3.45;;;1.70;;
74650;SDS011;63169;46.042;14.592;2024-02-23T08:36:15;3.25;;;1.77;;
74650;SDS011;63169;46.042;14.592;2024-02-23T08:38:40;4.43;;;2.25;;
74650;SDS011;63169;46.042;14.592;2024-02-23T08:41:06;3.17;;;1.70;;
74650;SDS011;63169;46.042;14.592;2024-02-23T08:43:31;3.58;;;1.85;;
74650;SDS011;63169;46.042;14.592;2024-02-23T08:45:57;2.83;;;1.30;;
74650;SDS011;63169;46.042;14.592;2024-02-23T08:48:22;3.35;;;1.48;;
74650;SDS011;63169;46.042;14.592;2024-02-23T08:50:47;5.60;;;2.53;;
74650;SDS011;63169;46.042;14.592;2024-02-23T08:53:13;3.50;;;2.10;;
74650;SDS011;63169;46.042;14.592;2024-02-23T08:55:39;5.03;;;1.88;;
74650;SDS011;63169;46.042;14.592;2024-02-23T08:58:04;5.95;;;2.92;;
74650;SDS011;63169;46.042;14.592;2024-02-23T09:00:31;6.10;;;3.28;;
74650;SDS011;63169;46.042;14.592;2024-02-23T09:02:56;5.53;;;2.50;;
74650;SDS011;63169;46.042;14.592;2024-02-23T09:05:22;6.03;;;3.42;;
74650;SDS011;63169;46.042;14.592;2024-02-23T09:07:47;5.30;;;2.13;;
74650;SDS011;63169;46.042;14.592;2024-02-23T09:10:13;6.65;;;2.60;;
74650;SDS011;63169;46.042;14.592;2024-02-23T09:12:38;5.38;;;2.17;;
74650;SDS011;63169;46.042;14.592;2024-02-23T09:15:04;6.70;;;2.38;;
74650;SDS011;63169;46.042;14.592;2024-02-23T09:17:30;4.57;;;1.60;;
74650;SDS011;63169;46.042;14.592;2024-02-23T09:19:55;4.60;;;2.10;;
74650;SDS011;63169;46.042;14.592;2024-02-23T09:22:21;7.00;;;3.53;;
74650;SDS011;63169;46.042;14.592;2024-02-23T09:24:47;3.85;;;2.15;;
74650;SDS011;63169;46.042;14.592;2024-02-23T09:27:13;6.75;;;3.28;;
74650;SDS011;63169;46.042;14.592;2024-02-23T09:29:40;6.32;;;3.78;;
74650;SDS011;63169;46.042;14.592;2024-02-23T09:32:05;6.70;;;3.00;;
74650;SDS011;63169;46.042;14.592;2024-02-23T09:34:31;7.53;;;3.58;;
74650;SDS011;63169;46.042;14.592;2024-02-23T09:36:56;9.07;;;4.85;;
74650;SDS011;63169;46.042;14.592;2024-02-23T09:39:22;10.02;;;4.40;;
74650;SDS011;63169;46.042;14.592;2024-02-23T09:41:49;8.80;;;4.30;;
74650;SDS011;63169;46.042;14.592;2024-02-23T09:44:15;8.32;;;3.40;;
74650;SDS011;63169;46.042;14.592;2024-02-23T09:46:42;5.53;;;3.42;;
74650;SDS011;63169;46.042;14.592;2024-02-23T09:51:34;5.13;;;2.08;;
74650;SDS011;63169;46.042;14.592;2024-02-23T09:54:01;6.22;;;1.73;;
74650;SDS011;63169;46.042;14.592;2024-02-23T09:56:27;7.20;;;2.15;;
74650;SDS011;63169;46.042;14.592;2024-02-23T09:58:59;7.22;;;3.08;;
74650;SDS011;63169;46.042;14.592;2024-02-23T10:01:30;6.38;;;2.63;;
74650;SDS011;63169;46.042;14.592;2024-02-23T10:03:57;6.80;;;1.95;;
74650;SDS011;63169;46.042;14.592;2024-02-23T10:06:24;8.13;;;3.83;;
74650;SDS011;63169;46.042;14.592;2024-02-23T10:08:50;4.70;;;2.38;;
74650;SDS011;63169;46.042;14.592;2024-02-23T10:11:18;4.55;;;2.78;;
74650;SDS011;63169;46.042;14.592;2024-02-23T10:13:44;8.95;;;3.95;;
74650;SDS011;63169;46.042;14.592;2024-02-23T10:16:09;6.80;;;3.38;;
74650;SDS011;63169;46.042;14.592;2024-02-23T10:18:37;8.10;;;4.43;;
74650;SDS011;63169;46.042;14.592;2024-02-23T10:21:04;10.13;;;3.20;;
74650;SDS011;63169;46.042;14.592;2024-02-23T10:23:30;10.05;;;3.70;;
74650;SDS011;63169;46.042;14.592;2024-02-23T10:25:55;6.45;;;3.67;;
74650;SDS011;63169;46.042;14.592;2024-02-23T10:28:20;5.28;;;3.85;;
74650;SDS011;63169;46.042;14.592;2024-02-23T10:30:48;6.05;;;2.30;;
74650;SDS011;63169;46.042;14.592;2024-02-23T10:33:13;5.47;;;2.80;;
74650;SDS011;63169;46.042;14.592;2024-02-23T10:35:39;5.30;;;2.10;;
74650;SDS011;63169;46.042;14.592;2024-02-23T10:38:06;4.53;;;1.83;;
74650;SDS011;63169;46.042;14.592;2024-02-23T10:40:34;5.63;;;1.98;;
74650;SDS011;63169;46.042;14.592;2024-02-23T10:43:05;5.05;;;2.08;;
74650;SDS011;63169;46.042;14.592;2024-02-23T10:45:36;6.93;;;2.38;;
74650;SDS011;63169;46.042;14.592;2024-02-23T10:48:01;5.07;;;2.28;;
74650;SDS011;63169;46.042;14.592;2024-02-23T10:50:27;6.50;;;3.63;;
74650;SDS011;63169;46.042;14.592;2024-02-23T10:52:53;6.00;;;2.83;;
74650;SDS011;63169;46.042;14.592;2024-02-23T10:55:19;9.68;;;3.92;;
74650;SDS011;63169;46.042;14.592;2024-02-23T10:57:45;6.20;;;2.90;;
74650;SDS011;63169;46.042;14.592;2024-02-23T11:00:13;4.82;;;2.60;;
74650;SDS011;63169;46.042;14.592;2024-02-23T11:02:44;6.63;;;3.45;;
74650;SDS011;63169;46.042;14.592;2024-02-23T11:05:11;5.72;;;2.15;;
74650;SDS011;63169;46.042;14.592;2024-02-23T11:07:38;5.53;;;2.53;;
74650;SDS011;63169;46.042;14.592;2024-02-23T11:10:05;7.95;;;3.65;;
74650;SDS011;63169;46.042;14.592;2024-02-23T11:12:31;4.53;;;3.38;;
74650;SDS011;63169;46.042;14.592;2024-02-23T11:14:57;8.02;;;2.83;;
74650;SDS011;63169;46.042;14.592;2024-02-23T11:17:25;8.05;;;3.00;;
74650;SDS011;63169;46.042;14.592;2024-02-23T11:19:51;9.48;;;3.83;;
74650;SDS011;63169;46.042;14.592;2024-02-23T11:22:26;31.20;;;15.75;;
74650;SDS011;63169;46.042;14.592;2024-02-23T11:24:52;7.32;;;3.25;;
74650;SDS011;63169;46.042;14.592;2024-02-23T11:27:18;7.72;;;3.67;;
74650;SDS011;63169;46.042;14.592;2024-02-23T11:29:47;4.93;;;3.60;;
74650;SDS011;63169;46.042;14.592;2024-02-23T11:32:17;5.68;;;2.95;;
74650;SDS011;63169;46.042;14.592;2024-02-23T11:34:53;9.60;;;4.00;;
74650;SDS011;63169;46.042;14.592;2024-02-23T11:37:20;6.15;;;3.28;;
74650;SDS011;63169;46.042;14.592;2024-02-23T11:39:46;6.25;;;3.88;;
74650;SDS011;63169;46.042;14.592;2024-02-23T11:42:12;6.97;;;4.25;;
74650;SDS011;63169;46.042;14.592;2024-02-23T11:44:37;65.68;;;35.65;;
74650;SDS011;63169;46.042;14.592;2024-02-23T11:47:03;14.73;;;5.20;;
74650;SDS011;63169;46.042;14.592;2024-02-23T11:49:28;9.40;;;4.13;;
74650;SDS011;63169;46.042;14.592;2024-02-23T11:51:54;9.55;;;4.30;;
74650;SDS011;63169;46.042;14.592;2024-02-23T11:54:20;12.80;;;5.10;;
74650;SDS011;63169;46.042;14.592;2024-02-23T11:56:49;12.70;;;7.15;;
74650;SDS011;63169;46.042;14.592;2024-02-23T11:59:15;15.43;;;5.45;;
74650;SDS011;63169;46.042;14.592;2024-02-23T12:01:41;12.90;;;5.78;;
74650;SDS011;63169;46.042;14.592;2024-02-23T12:04:06;10.13;;;6.15;;
74650;SDS011;63169;46.042;14.592;2024-02-23T12:06:33;7.30;;;4.80;;
74650;SDS011;63169;46.042;14.592;2024-02-23T12:08:59;10.75;;;4.53;;
74650;SDS011;63169;46.042;14.592;2024-02-23T12:11:25;9.85;;;4.55;;
74650;SDS011;63169;46.042;14.592;2024-02-23T12:13:51;8.38;;;4.10;;
74650;SDS011;63169;46.042;14.592;2024-02-23T12:16:16;9.98;;;4.70;;
74650;SDS011;63169;46.042;14.592;2024-02-23T12:18:42;16.95;;;6.30;;
74650;SDS011;63169;46.042;14.592;2024-02-23T12:21:08;14.55;;;6.32;;
74650;SDS011;63169;46.042;14.592;2024-02-23T12:23:46;12.45;;;6.95;;
74650;SDS011;63169;46.042;14.592;2024-02-23T12:26:14;10.90;;;5.35;;
74650;SDS011;63169;46.042;14.592;2024-02-23T12:28:41;11.65;;;5.63;;
74650;SDS011;63169;46.042;14.592;2024-02-23T12:31:07;9.73;;;5.07;;
74650;SDS011;63169;46.042;14.592;2024-02-23T12:33:33;7.55;;;4.15;;
74650;SDS011;63169;46.042;14.592;2024-02-23T12:36:00;11.35;;;5.32;;
74650;SDS011;63169;46.042;14.592;2024-02-23T12:38:27;9.73;;;4.85;;
74650;SDS011;63169;46.042;14.592;2024-02-23T12:40:52;37.97;;;29.00;;
74650;SDS011;63169;46.042;14.592;2024-02-23T12:43:18;23.88;;;16.77;;
74650;SDS011;63169;46.042;14.592;2024-02-23T12:45:46;15.40;;;8.88;;
74650;SDS011;63169;46.042;14.592;2024-02-23T12:48:14;15.13;;;10.13;;
74650;SDS011;63169;46.042;14.592;2024-02-23T12:53:06;11.30;;;7.32;;
74650;SDS011;63169;46.042;14.592;2024-02-23T12:55:32;12.52;;;6.38;;
74650;SDS011;63169;46.042;14.592;2024-02-23T12:57:57;15.20;;;7.25;;
74650;SDS011;63169;46.042;14.592;2024-02-23T13:00:23;14.05;;;9.25;;
74650;SDS011;63169;46.042;14.592;2024-02-23T13:02:48;16.42;;;8.00;;
74650;SDS011;63169;46.042;14.592;2024-02-23T13:05:14;15.45;;;8.93;;
74650;SDS011;63169;46.042;14.592;2024-02-23T13:07:40;16.20;;;9.23;;
74650;SDS011;63169;46.042;14.592;2024-02-23T13:12:32;15.38;;;7.90;;
74650;SDS011;63169;46.042;14.592;2024-02-23T13:14:58;15.00;;;7.93;;
74650;SDS011;63169;46.042;14.592;2024-02-23T13:17:24;15.60;;;8.60;;
74650;SDS011;63169;46.042;14.592;2024-02-23T13:19:50;16.67;;;10.18;;
74650;SDS011;63169;46.042;14.592;2024-02-23T13:22:15;16.75;;;9.80;;
74650;SDS011;63169;46.042;14.592;2024-02-23T13:24:41;13.15;;;9.07;;
74650;SDS011;63169;46.042;14.592;2024-02-23T13:27:06;15.40;;;9.55;;
74650;SDS011;63169;46.042;14.592;2024-02-23T13:29:31;14.02;;;9.32;;
74650;SDS011;63169;46.042;14.592;2024-02-23T13:31:57;16.25;;;8.27;;
74650;SDS011;63169;46.042;14.592;2024-02-23T13:34:22;17.38;;;10.10;;
74650;SDS011;63169;46.042;14.592;2024-02-23T13:36:48;15.95;;;10.00;;
74650;SDS011;63169;46.042;14.592;2024-02-23T13:39:15;15.68;;;10.10;;
74650;SDS011;63169;46.042;14.592;2024-02-23T13:41:40;18.05;;;11.27;;
74650;SDS011;63169;46.042;14.592;2024-02-23T13:44:06;16.38;;;9.82;;
74650;SDS011;63169;46.042;14.592;2024-02-23T13:46:34;16.20;;;9.07;;
74650;SDS011;63169;46.042;14.592;2024-02-23T13:49:04;21.80;;;11.38;;
74650;SDS011;63169;46.042;14.592;2024-02-23T13:51:31;24.10;;;11.05;;
74650;SDS011;63169;46.042;14.592;2024-02-23T13:53:57;22.90;;;10.40;;
74650;SDS011;63169;46.042;14.592;2024-02-23T13:56:22;22.92;;;11.82;;
74650;SDS011;63169;46.042;14.592;2024-02-23T13:58:48;24.05;;;12.65;;
74650;SDS011;63169;46.042;14.592;2024-02-23T14:01:14;18.92;;;10.70;;
74650;SDS011;63169;46.042;14.592;2024-02-23T14:03:40;17.90;;;8.52;;
74650;SDS011;63169;46.042;14.592;2024-02-23T14:06:05;11.88;;;6.75;;
74650;SDS011;63169;46.042;14.592;2024-02-23T14:08:31;17.65;;;9.02;;
74650;SDS011;63169;46.042;14.592;2024-02-23T14:10:59;50.83;;;26.33;;
74650;SDS011;63169;46.042;14.592;2024-02-23T14:13:25;27.52;;;15.73;;
74650;SDS011;63169;46.042;14.592;2024-02-23T14:15:50;14.35;;;7.88;;
74650;SDS011;63169;46.042;14.592;2024-02-23T14:18:16;12.40;;;6.28;;
74650;SDS011;63169;46.042;14.592;2024-02-23T14:20:41;18.42;;;8.93;;
74650;SDS011;63169;46.042;14.592;2024-02-23T14:23:07;16.92;;;10.52;;
74650;SDS011;63169;46.042;14.592;2024-02-23T14:25:32;12.60;;;7.53;;
74650;SDS011;63169;46.042;14.592;2024-02-23T14:27:58;11.43;;;5.82;;
74650;SDS011;63169;46.042;14.592;2024-02-23T14:30:23;9.43;;;4.28;;
74650;SDS011;63169;46.042;14.592;2024-02-23T14:32:49;2.80;;;0.90;;
74650;SDS011;63169;46.042;14.592;2024-02-23T14:35:14;2.75;;;0.93;;